Time;durP1;ratioP1;P1;durP2;ratioP2;P2;SDS_P1;SDS_P2;PMS_P1;PMS_P2;Temp;Humidity;BMP_temperature;BMP_pressure;BME280_temperature;BME280_humidity;BME280_pressure;Samples;Min_cycle;Max_cycle;Signal;HPM_P1;HPM_P2
2022/01/29 00:01:00;;;;;;;;;;;;;;;-11.03;65.09;96932.25;6316018;28;19931;-67
2022/01/29 00:04:03;;;;;;;;;;;;;;;-11.06;65.21;96931.31;6312441;28;19931;-68
2022/01/29 00:07:04;;;;;;;;;;;;;;;-11.07;65.14;96927.91;6278444;28;19923;-68
2022/01/29 00:10:06;;;;;;;;;;;;;;;-11.07;64.95;96925.34;6316989;28;19924;-69
2022/01/29 00:13:09;;;;;;;;;;;;;;;-11.04;65.29;96924.56;6314227;28;19931;-67
2022/01/29 00:16:11;;;;;;;;;;;;;;;-11.02;65.25;96923.78;6317939;28;20416;-69
2022/01/29 00:19:12;;;;;;;;;;;;;;;-11.01;65.26;96920.44;6317238;28;20445;-68
2022/01/29 00:22:13;;;;;;;;;;;;;;;-11.00;65.49;96932.28;6317781;28;19928;-68
2022/01/29 00:25:14;;;;;;;;;;;;;;;-11.00;65.30;96926.38;6315382;28;19931;-68
2022/01/29 00:28:21;;;;;;;;;;;;;;;-10.97;65.11;96922.19;6313055;28;19950;-69
2022/01/29 00:31:22;;;;;;;;;;;;;;;-10.98;64.65;96920.47;6312302;28;19924;-68
2022/01/29 00:34:26;;;;;;;;;;;;;;;-11.04;64.51;96925.41;6317564;28;19928;-68
2022/01/29 00:37:27;;;;;;;;;;;;;;;-11.13;64.58;96915.94;6313016;28;19954;-68
2022/01/29 00:40:36;;;;;;;;;;;;;;;-11.20;64.77;96913.25;6312060;28;19931;-68
2022/01/29 00:43:37;;;;;;;;;;;;;;;-11.23;65.17;96908.97;6304393;28;19927;-68
2022/01/29 00:46:41;;;;;;;;;;;;;;;-11.19;65.03;96910.72;6317343;28;19991;-69
2022/01/29 00:49:45;;;;;;;;;;;;;;;-11.09;64.80;96906.72;6313886;28;19920;-68
2022/01/29 00:52:47;;;;;;;;;;;;;;;-10.99;65.01;96898.41;6309550;28;20372;-68
2022/01/29 00:55:50;;;;;;;;;;;;;;;-10.94;64.99;96891.75;6310564;28;19927;-68
2022/01/29 00:58:51;;;;;;;;;;;;;;;-10.88;64.95;96886.78;6313621;28;19924;-68
2022/01/29 01:01:52;;;;;;;;;;;;;;;-10.78;64.83;96884.41;6311423;28;19924;-69
2022/01/29 01:04:53;;;;;;;;;;;;;;;-10.73;64.34;96886.19;6312347;28;19931;-68
2022/01/29 01:07:58;;;;;;;;;;;;;;;-10.74;64.26;96879.41;6319100;28;19920;-68
2022/01/29 01:11:03;;;;;;;;;;;;;;;-10.77;64.42;96881.03;6311672;28;19928;-69
2022/01/29 01:14:04;;;;;;;;;;;;;;;-10.79;64.37;96869.97;6315977;28;19924;-68
2022/01/29 01:17:08;;;;;;;;;;;;;;;-10.82;64.61;96872.47;6311409;28;19930;-69
2022/01/29 01:20:12;;;;;;;;;;;;;;;-10.85;64.36;96875.81;6316096;28;19924;-68
2022/01/29 01:23:18;;;;;;;;;;;;;;;-10.89;64.08;96880.00;6318015;28;20787;-69
2022/01/29 01:26:21;;;;;;;;;;;;;;;-10.88;64.49;96876.59;6319057;28;19924;-67
2022/01/29 01:29:22;;;;;;;;;;;;;;;-10.86;64.40;96869.88;6315957;28;19928;-68
2022/01/29 01:32:26;;;;;;;;;;;;;;;-10.83;64.48;96873.31;6313035;28;19930;-69
2022/01/29 01:35:36;;;;;;;;;;;;;;;-10.82;64.39;96870.78;6308304;28;19924;-67
2022/01/29 01:38:46;;;;;;;;;;;;;;;-10.78;64.50;96871.69;6309802;28;19927;-68
2022/01/29 01:42:09;;;;;;;;;;;;;;;-10.77;64.26;96864.09;6313522;28;19924;-67
2022/01/29 01:45:08;;;;;;;;;;;;;;;-10.75;64.12;96871.78;6308572;28;19931;-68
2022/01/29 01:48:10;;;;;;;;;;;;;;;-10.78;64.14;96872.56;6318008;28;19924;-68
2022/01/29 01:51:13;;;;;;;;;;;;;;;-10.87;64.01;96873.25;6308880;28;20279;-68
2022/01/29 01:54:19;;;;;;;;;;;;;;;-10.98;64.58;96879.81;6312622;28;19977;-68
2022/01/29 01:57:20;;;;;;;;;;;;;;;-11.11;64.41;96877.88;6316725;28;19924;-69
2022/01/29 02:00:25;;;;;;;;;;;;;;;-11.28;64.37;96879.22;6314700;28;20019;-70
2022/01/29 02:03:27;;;;;;;;;;;;;;;-11.39;64.70;96877.31;6312822;28;19924;-69
2022/01/29 02:06:29;;;;;;;;;;;;;;;-11.47;65.11;96881.38;6318224;28;19931;-68
2022/01/29 02:09:33;;;;;;;;;;;;;;;-11.55;65.10;96880.34;6322234;28;19924;-69
2022/01/29 02:12:49;;;;;;;;;;;;;;;-11.62;64.95;96883.59;6321484;28;19924;-69
2022/01/29 02:15:50;;;;;;;;;;;;;;;-11.63;65.32;96885.28;6313679;28;19931;-69
2022/01/29 02:18:54;;;;;;;;;;;;;;;-11.72;65.01;96887.59;6318083;28;19925;-69
2022/01/29 02:21:58;;;;;;;;;;;;;;;-11.71;65.21;96888.47;6315119;28;19924;-69
2022/01/29 02:25:02;;;;;;;;;;;;;;;-11.69;65.76;96891.88;6318821;28;19924;-68
2022/01/29 02:28:13;;;;;;;;;;;;;;;-11.69;65.29;96887.69;6312487;28;20408;-69
2022/01/29 02:31:18;;;;;;;;;;;;;;;-11.70;65.85;96890.19;6316895;28;20305;-69
2022/01/29 02:34:19;;;;;;;;;;;;;;;-11.76;65.98;96891.75;6316226;28;20401;-68
2022/01/29 02:37:20;;;;;;;;;;;;;;;-11.77;65.76;96895.13;6318349;28;19931;-68
2022/01/29 02:40:25;;;;;;;;;;;;;;;-11.81;66.08;96888.25;6320392;28;19924;-68
2022/01/29 02:43:33;;;;;;;;;;;;;;;-11.82;66.20;96891.63;6323583;28;19928;-68
2022/01/29 02:46:49;;;;;;;;;;;;;;;-11.84;65.73;96883.13;6317238;28;19924;-68
2022/01/29 02:49:50;;;;;;;;;;;;;;;-11.83;66.12;96884.84;6303835;28;19924;-68
2022/01/29 02:52:56;;;;;;;;;;;;;;;-11.87;65.88;96883.09;6307795;28;19924;-68
2022/01/29 02:56:00;;;;;;;;;;;;;;;-11.89;66.35;96889.78;6316177;28;19924;-69
2022/01/29 02:59:01;;;;;;;;;;;;;;;-11.89;66.33;96886.41;6320424;28;20321;-68
2022/01/29 03:02:06;;;;;;;;;;;;;;;-11.81;66.60;96883.19;6320017;28;19930;-68
2022/01/29 03:05:10;;;;;;;;;;;;;;;-11.79;66.54;96879.00;6318706;28;19924;-68
2022/01/29 03:08:12;;;;;;;;;;;;;;;-11.83;66.16;96884.84;6321739;28;19924;-68
2022/01/29 03:11:19;;;;;;;;;;;;;;;-11.85;66.60;96886.50;6308346;28;19931;-69
2022/01/29 03:14:22;;;;;;;;;;;;;;;-11.85;66.00;96891.56;6318928;28;20445;-69
2022/01/29 03:17:26;;;;;;;;;;;;;;;-11.85;66.48;96885.66;6313093;28;19924;-68
2022/01/29 03:20:31;;;;;;;;;;;;;;;-11.83;66.32;96894.13;6321501;28;20571;-68
2022/01/29 03:23:44;;;;;;;;;;;;;;;-11.82;66.61;96886.56;6829511;22;19923;31
2022/01/29 03:26:47;;;;;;;;;;;;;;;-11.82;66.67;96870.47;6139843;28;20395;-69
2022/01/29 03:29:50;;;;;;;;;;;;;;;-11.71;66.78;96873.25;6148695;28;19927;-69
2022/01/29 03:32:55;;;;;;;;;;;;;;;-11.86;66.59;96869.59;6138726;28;20098;-64
2022/01/29 03:35:59;;;;;;;;;;;;;;;-11.94;66.70;96871.09;6143769;28;20018;-64
2022/01/29 03:39:02;;;;;;;;;;;;;;;-11.96;66.83;96864.28;6140122;28;20391;-64
2022/01/29 03:42:07;;;;;;;;;;;;;;;-11.94;66.90;96866.03;6141395;28;19922;-63
2022/01/29 03:45:13;;;;;;;;;;;;;;;-11.90;67.20;96867.78;6135384;28;20302;-65
2022/01/29 03:48:19;;;;;;;;;;;;;;;-11.83;66.55;96862.00;6141794;28;19962;-64
2022/01/29 03:51:23;;;;;;;;;;;;;;;-11.82;66.51;96861.19;6147873;28;19926;-64
2022/01/29 03:54:26;;;;;;;;;;;;;;;-11.79;66.90;96856.16;6146624;28;20489;-64
2022/01/29 03:57:30;;;;;;;;;;;;;;;-11.74;66.56;96852.88;6138448;28;19926;-64
2022/01/29 04:00:33;;;;;;;;;;;;;;;-11.72;66.93;96856.28;6139806;28;19926;-65
2022/01/29 04:03:34;;;;;;;;;;;;;;;-11.63;66.80;96846.31;6149797;28;19930;-65
2022/01/29 04:06:37;;;;;;;;;;;;;;;-11.60;66.58;96839.66;6149964;28;20320;-64
2022/01/29 04:09:49;;;;;;;;;;;;;;;-11.54;66.74;96834.69;6149677;29;19926;-64
2022/01/29 04:12:57;;;;;;;;;;;;;;;-11.53;66.46;96838.09;6133433;29;20410;-64
2022/01/29 04:15:58;;;;;;;;;;;;;;;-11.48;66.54;96846.66;6149280;29;19934;-64
2022/01/29 04:18:59;;;;;;;;;;;;;;;-11.49;66.52;96846.63;6146388;29;20414;-64
2022/01/29 04:22:04;;;;;;;;;;;;;;;-11.50;66.64;96843.22;6148209;28;19926;-64
2022/01/29 04:25:07;;;;;;;;;;;;;;;-11.46;66.72;96839.06;6148699;28;19955;-65
2022/01/29 04:28:11;;;;;;;;;;;;;;;-11.41;66.54;96845.94;6149280;28;20009;-67
2022/01/29 04:31:18;;;;;;;;;;;;;;;-11.46;66.64;96855.19;6137765;28;19941;-64
2022/01/29 04:34:19;;;;;;;;;;;;;;;-11.39;67.35;96849.38;6142016;28;19926;-65
2022/01/29 04:37:23;;;;;;;;;;;;;;;-11.35;66.96;96850.28;6145884;28;19926;-65
2022/01/29 04:40:24;;;;;;;;;;;;;;;-11.38;66.91;96843.50;6146503;28;20021;-65
2022/01/29 04:43:25;;;;;;;;;;;;;;;-11.32;66.63;96841.06;6147811;28;19926;-64
2022/01/29 04:46:26;;;;;;;;;;;;;;;-11.19;66.66;96844.69;6145620;28;19933;-64
2022/01/29 04:49:28;;;;;;;;;;;;;;;-11.20;66.58;96847.22;6142486;28;19949;-67
2022/01/29 04:52:29;;;;;;;;;;;;;;;-11.18;66.44;96850.63;6156204;28;19930;-68
2022/01/29 04:55:30;;;;;;;;;;;;;;;-11.01;66.48;96859.44;6142130;28;20316;-68
2022/01/29 04:58:31;;;;;;;;;;;;;;;-10.95;66.27;96861.25;6146134;28;20295;-67
2022/01/29 05:01:32;;;;;;;;;;;;;;;-10.89;66.53;96858.81;6141606;28;19930;-68
2022/01/29 05:04:33;;;;;;;;;;;;;;;-10.95;66.04;96857.00;6136410;28;20318;-68
2022/01/29 05:07:34;;;;;;;;;;;;;;;-10.92;66.05;96853.66;6141646;28;19933;-69
2022/01/29 05:10:35;;;;;;;;;;;;;;;-10.79;65.71;96847.09;6156545;28;19927;-67
2022/01/29 05:13:39;;;;;;;;;;;;;;;-10.60;65.94;96849.16;6142971;28;19927;-68
2022/01/29 05:17:06;;;;;;;;;;;;;;;-10.37;65.59;96848.66;6139220;28;19949;-67
2022/01/29 05:26:51;;;;;;;;;;;;;;;-9.70;64.71;96838.63;6140937;28;20012;-68
2022/01/29 05:29:52;;;;;;;;;;;;;;;-9.57;64.67;96836.22;6140560;28;20077;-68
2022/01/29 05:32:56;;;;;;;;;;;;;;;-9.32;64.59;96837.38;6144798;28;19931;-67
2022/01/29 05:35:57;;;;;;;;;;;;;;;-9.16;64.16;96827.38;6145335;28;19926;-68
2022/01/29 05:38:58;;;;;;;;;;;;;;;-9.00;63.98;96823.28;6136744;28;19933;-67
2022/01/29 05:42:00;;;;;;;;;;;;;;;-8.89;63.74;96820.03;6144598;28;19933;-67
2022/01/29 05:45:02;;;;;;;;;;;;;;;-8.73;63.34;96823.59;6143296;28;19930;-68
2022/01/29 05:48:08;;;;;;;;;;;;;;;-8.56;63.12;96816.09;6136584;29;20595;-67
2022/01/29 05:51:10;;;;;;;;;;;;;;;-8.47;63.08;96821.25;6127323;28;22619;-68
2022/01/29 05:54:11;;;;;;;;;;;;;;;-8.44;62.87;96817.88;6149371;28;19927;-68
2022/01/29 05:57:17;;;;;;;;;;;;;;;-8.50;63.11;96830.59;6132332;29;20081;-68
2022/01/29 06:00:23;;;;;;;;;;;;;;;-8.50;62.73;96830.59;6140250;28;19926;-68
2022/01/29 06:03:24;;;;;;;;;;;;;;;-8.38;62.74;96825.56;6144413;28;20388;-68
2022/01/29 06:06:25;;;;;;;;;;;;;;;-8.25;62.74;96827.38;6149815;28;20012;-68
2022/01/29 06:09:26;;;;;;;;;;;;;;;-8.13;62.55;96817.25;6145490;28;19927;-68
2022/01/29 06:12:30;;;;;;;;;;;;;;;-8.01;62.00;96820.72;6137259;28;20412;-68
2022/01/29 06:15:35;;;;;;;;;;;;;;;-8.10;61.97;96823.22;6137464;28;19937;-68
2022/01/29 06:18:36;;;;;;;;;;;;;;;-8.07;61.40;96818.13;6142039;28;20398;-69
2022/01/29 06:21:37;;;;;;;;;;;;;;;-7.96;61.99;96819.06;6145211;28;19926;-67
2022/01/29 06:24:38;;;;;;;;;;;;;;;-7.89;61.45;96819.97;6148896;28;20305;-68
2022/01/29 06:27:39;;;;;;;;;;;;;;;-7.80;61.13;96815.75;6142435;28;19926;-68
2022/01/29 06:30:40;;;;;;;;;;;;;;;-7.87;61.37;96808.91;6146088;28;20081;-68
2022/01/29 06:33:44;;;;;;;;;;;;;;;-7.79;61.51;96806.41;6146141;28;19926;-68
2022/01/29 06:36:47;;;;;;;;;;;;;;;-7.60;60.90;96803.09;6140833;28;20403;-67
2022/01/29 06:39:51;;;;;;;;;;;;;;;-7.48;61.01;96799.75;6145698;28;19926;-67
2022/01/29 06:42:56;;;;;;;;;;;;;;;-7.29;60.18;96809.19;6142937;28;19933;-67
2022/01/29 06:45:57;;;;;;;;;;;;;;;-7.11;60.13;96808.41;6144958;28;19927;-68
2022/01/29 06:48:58;;;;;;;;;;;;;;;-6.89;60.46;96811.03;6142665;28;19927;-68
2022/01/29 06:52:02;;;;;;;;;;;;;;;-6.82;60.13;96800.81;6156060;28;19930;-68
2022/01/29 06:55:03;;;;;;;;;;;;;;;-6.78;59.75;96804.22;6142392;28;19931;-68
2022/01/29 06:58:05;;;;;;;;;;;;;;;-6.69;58.95;96798.28;6148782;28;19927;-68
2022/01/29 07:01:08;;;;;;;;;;;;;;;-6.71;58.89;96799.97;6147766;28;19926;-67
2022/01/29 07:04:10;;;;;;;;;;;;;;;-6.52;59.18;96804.25;6137075;28;20390;-68
2022/01/29 07:07:11;;;;;;;;;;;;;;;-6.35;59.10;96800.00;6149287;28;19926;-68
2022/01/29 07:10:12;;;;;;;;;;;;;;;-6.19;59.05;96797.44;6143996;28;19933;-68
2022/01/29 07:13:16;;;;;;;;;;;;;;;-5.98;58.07;96787.16;6143229;28;19926;-68
2022/01/29 07:16:19;;;;;;;;;;;;;;;-5.69;57.42;96786.22;6141710;28;19927;-68
2022/01/29 07:19:23;;;;;;;;;;;;;;;-5.36;57.51;96798.09;6145990;28;20117;-67
2022/01/29 07:22:29;;;;;;;;;;;;;;;-5.06;57.01;96792.00;6147227;28;19930;-68
2022/01/29 07:25:35;;;;;;;;;;;;;;;-4.50;55.85;96782.25;6145621;28;20013;-67
2022/01/29 07:28:36;;;;;;;;;;;;;;;-3.83;55.38;96780.81;6142386;28;20007;-67
2022/01/29 07:31:43;;;;;;;;;;;;;;;-3.06;53.88;96779.94;6140525;28;19927;-67
2022/01/29 07:34:44;;;;;;;;;;;;;;;-2.41;52.05;96772.16;6145594;28;20292;-68
2022/01/29 07:37:48;;;;;;;;;;;;;;;-2.00;51.58;96776.66;6142906;28;19933;-67
2022/01/29 07:40:52;;;;;;;;;;;;;;;-1.75;51.46;96784.81;6154364;28;20396;-67
2022/01/29 07:43:53;;;;;;;;;;;;;;;-1.41;51.46;96779.88;6145381;28;20319;-68
2022/01/29 07:46:56;;;;;;;;;;;;;;;-1.19;50.21;96776.88;6142895;28;19934;-68
2022/01/29 07:50:00;;;;;;;;;;;;;;;-1.09;49.96;96772.38;6145750;28;20300;-67
2022/01/29 07:53:03;;;;;;;;;;;;;;;-0.81;48.59;96762.34;6139054;28;19926;-67
2022/01/29 07:56:06;;;;;;;;;;;;;;;0.06;47.13;96762.00;6143775;28;20068;-67
2022/01/29 07:59:15;;;;;;;;;;;;;;;1.11;45.47;96758.31;6145905;28;20407;-67
2022/01/29 08:02:16;;;;;;;;;;;;;;;1.47;43.93;96755.47;6143780;28;19933;-67
2022/01/29 08:05:21;;;;;;;;;;;;;;;1.90;44.05;96744.63;6142580;28;19927;-68
2022/01/29 08:08:22;;;;;;;;;;;;;;;2.53;43.34;96736.47;6147691;28;20287;-69
2022/01/29 08:11:26;;;;;;;;;;;;;;;2.70;42.02;96740.13;6160798;28;19923;-68
2022/01/29 08:14:27;;;;;;;;;;;;;;;2.52;41.60;96730.41;6140397;28;19949;-68
2022/01/29 08:17:30;;;;;;;;;;;;;;;2.20;42.15;96726.31;6141198;28;19926;-68
2022/01/29 08:20:34;;;;;;;;;;;;;;;2.06;42.60;96731.97;6138176;28;19926;-68
2022/01/29 08:23:39;;;;;;;;;;;;;;;2.23;43.32;96739.19;6142589;28;20384;-68
2022/01/29 08:26:43;;;;;;;;;;;;;;;2.53;42.33;96736.47;6142838;28;19926;-68
2022/01/29 08:29:47;;;;;;;;;;;;;;;2.66;42.14;96733.38;6140476;28;20419;-68
2022/01/29 08:32:48;;;;;;;;;;;;;;;2.79;41.71;96731.16;6138340;28;19931;-68
2022/01/29 08:35:50;;;;;;;;;;;;;;;2.72;42.00;96728.84;6138818;28;20447;-69
2022/01/29 08:38:53;;;;;;;;;;;;;;;2.56;41.52;96726.78;6144484;28;19926;-67
2022/01/29 08:41:57;;;;;;;;;;;;;;;2.30;41.34;96708.69;6145485;28;19931;-68
2022/01/29 08:45:01;;;;;;;;;;;;;;;2.40;40.96;96715.25;6139707;28;19926;-68
2022/01/29 08:48:02;;;;;;;;;;;;;;;3.03;39.98;96711.25;6143357;28;19927;-67
2022/01/29 08:51:04;;;;;;;;;;;;;;;3.54;39.18;96711.91;6142296;28;19927;-68
2022/01/29 08:54:05;;;;;;;;;;;;;;;3.98;38.37;96707.47;6143002;28;19930;-68
2022/01/29 08:57:06;;;;;;;;;;;;;;;4.31;36.49;96693.97;6145016;28;19927;-68
2022/01/29 09:00:08;;;;;;;;;;;;;;;4.47;36.93;96705.41;6139040;28;19927;-71
2022/01/29 09:03:10;;;;;;;;;;;;;;;5.13;36.50;96701.63;6141764;29;19926;-67
2022/01/29 09:06:16;;;;;;;;;;;;;;;5.94;35.60;96696.94;6136247;28;20006;-68
2022/01/29 09:09:20;;;;;;;;;;;;;;;6.14;35.01;96704.63;6148716;28;19927;-68
2022/01/29 09:12:21;;;;;;;;;;;;;;;6.17;34.75;96699.28;6148278;28;19937;-68
2022/01/29 09:15:22;;;;;;;;;;;;;;;6.51;33.69;96708.00;6149419;28;20307;-68
2022/01/29 09:18:26;;;;;;;;;;;;;;;7.11;32.81;96703.09;6157951;28;20021;-68
2022/01/29 09:21:27;;;;;;;;;;;;;;;7.77;32.07;96716.97;6163726;28;19926;-68
2022/01/29 09:24:30;;;;;;;;;;;;;;;8.36;31.73;96704.84;6146613;28;20076;-68
2022/01/29 09:27:34;;;;;;;;;;;;;;;8.52;32.16;96699.53;6162009;28;19926;-68
2022/01/29 09:30:37;;;;;;;;;;;;;;;9.00;31.16;96689.63;6152013;28;19931;-69
2022/01/29 09:33:38;;;;;;;;;;;;;;;9.30;30.71;96686.91;6171590;28;19930;-68
2022/01/29 09:36:39;;;;;;;;;;;;;;;9.53;30.18;96680.19;6153273;28;19933;-68
2022/01/29 09:39:42;;;;;;;;;;;;;;;9.75;29.63;96671.78;6152651;28;20327;-68
2022/01/29 09:42:48;;;;;;;;;;;;;;;9.59;28.77;96676.34;6151670;28;19926;-68
2022/01/29 09:45:51;;;;;;;;;;;;;;;9.60;29.28;96660.50;6153406;28;19927;-68
2022/01/29 09:48:53;;;;;;;;;;;;;;;9.52;28.71;96659.28;6152662;28;20363;-68
2022/01/29 09:51:54;;;;;;;;;;;;;;;9.17;29.37;96659.72;6141353;28;19938;-69
2022/01/29 09:54:59;;;;;;;;;;;;;;;9.06;29.31;96656.94;6149822;28;19927;-68
2022/01/29 09:58:01;;;;;;;;;;;;;;;9.37;27.37;96651.47;6155679;28;19934;-68
2022/01/29 10:01:03;;;;;;;;;;;;;;;9.33;28.32;96655.19;6143597;28;20368;-69
2022/01/29 10:04:05;;;;;;;;;;;;;;;8.94;28.68;96654.13;6147361;28;20085;-65
2022/01/29 10:07:13;;;;;;;;;;;;;;;7.80;29.85;96653.94;6143795;28;20261;-69
2022/01/29 10:10:17;;;;;;;;;;;;;;;6.47;31.37;96656.81;6145395;28;19966;-67
2022/01/29 10:13:22;;;;;;;;;;;;;;;5.38;32.82;96663.03;6152507;29;19934;-67
2022/01/29 10:16:28;;;;;;;;;;;;;;;3.76;34.70;96665.03;6137158;29;20394;-67
2022/01/29 10:19:31;;;;;;;;;;;;;;;2.75;36.16;96658.59;6151596;28;20320;-67
2022/01/29 10:22:34;;;;;;;;;;;;;;;2.19;36.70;96665.78;6152055;29;19926;-67
2022/01/29 10:25:43;;;;;;;;;;;;;;;2.06;36.99;96659.31;6146832;28;20400;-68
2022/01/29 10:28:51;;;;;;;;;;;;;;;2.10;36.57;96665.25;6150981;28;19926;-67
2022/01/29 10:31:59;;;;;;;;;;;;;;;2.19;36.12;96660.56;6144504;28;19926;-67
2022/01/29 10:35:03;;;;;;;;;;;;;;;2.40;35.41;96664.16;6134206;28;20071;-67
2022/01/29 10:38:04;;;;;;;;;;;;;;;2.01;34.87;96662.06;6148329;28;19927;-70
2022/01/29 10:41:20;;;;;;;;;;;;;;;1.42;35.53;96657.13;6141254;28;20017;-67
2022/01/29 10:44:25;;;;;;;;;;;;;;;0.68;36.42;96658.53;6148249;28;19926;-66
2022/01/29 10:47:30;;;;;;;;;;;;;;;0.41;37.24;96661.00;6146705;28;19926;-67
2022/01/29 10:50:31;;;;;;;;;;;;;;;-0.24;37.71;96645.53;6136647;28;19927;-66
2022/01/29 10:53:32;;;;;;;;;;;;;;;-1.05;39.20;96647.47;6150088;28;19933;-65
2022/01/29 10:56:52;;;;;;;;;;;;;;;-1.81;40.59;96649.09;6145979;28;20405;-65
2022/01/29 10:59:55;;;;;;;;;;;;;;;-2.34;40.47;96653.50;6147874;28;19937;-69
2022/01/29 11:03:01;;;;;;;;;;;;;;;-2.88;41.75;96648.41;6140956;28;20400;-68
2022/01/29 11:06:06;;;;;;;;;;;;;;;-3.33;42.16;96648.19;6159546;28;19934;-68
2022/01/29 11:09:07;;;;;;;;;;;;;;;-3.85;42.99;96654.00;6149577;29;19927;-67
2022/01/29 11:12:09;;;;;;;;;;;;;;;-4.44;43.61;96646.09;6148085;28;19933;-68
2022/01/29 11:15:14;;;;;;;;;;;;;;;-4.98;44.58;96655.97;6143002;28;20021;-68
2022/01/29 11:18:17;;;;;;;;;;;;;;;-5.39;45.41;96638.28;6164085;28;19926;-69
2022/01/29 11:21:18;;;;;;;;;;;;;;;-5.50;45.31;96636.63;6143241;28;20065;-69
2022/01/29 11:24:23;;;;;;;;;;;;;;;-5.74;45.23;96631.63;6137832;28;19952;-68
2022/01/29 11:27:31;;;;;;;;;;;;;;;-5.98;45.27;96638.59;6147911;28;19926;-69
2022/01/29 11:30:34;;;;;;;;;;;;;;;-6.25;45.55;96639.53;6145259;28;19950;-68
2022/01/29 11:33:55;;;;;;;;;;;;;;;-6.34;46.10;96630.19;6139258;28;19972;-70
2022/01/29 11:36:59;;;;;;;;;;;;;;;-6.62;46.66;96626.84;6141017;28;20027;-68
2022/01/29 11:40:14;;;;;;;;;;;;;;;-7.00;46.78;96631.97;6158069;28;20558;-69
2022/01/29 11:43:19;;;;;;;;;;;;;;;-7.21;47.32;96637.09;6137194;28;20388;-70
2022/01/29 11:46:31;;;;;;;;;;;;;;;-7.07;47.18;96631.13;6157647;28;19927;-71
2022/01/29 11:49:35;;;;;;;;;;;;;;;-6.99;47.24;96631.13;6135797;28;20311;-69
2022/01/29 11:52:58;;;;;;;;;;;;;;;-7.18;46.94;96624.31;6135146;29;19926;-71
2022/01/29 11:56:21;;;;;;;;;;;;;;;-7.44;47.81;96627.69;6139801;28;20012;-71
2022/01/29 11:59:28;;;;;;;;;;;;;;;-7.62;48.25;96635.31;6138364;28;19926;-70
2022/01/29 12:02:29;;;;;;;;;;;;;;;-7.84;48.83;96630.16;6161172;28;19926;-69
2022/01/29 12:05:31;;;;;;;;;;;;;;;-8.07;49.66;96626.66;6147620;29;20107;-69
2022/01/29 12:08:38;;;;;;;;;;;;;;;-8.29;49.84;96628.25;6146197;29;19927;-70
2022/01/29 12:11:41;;;;;;;;;;;;;;;-8.39;50.68;96622.28;6128615;28;20373;-69
2022/01/29 12:14:46;;;;;;;;;;;;;;;-8.61;51.41;96619.63;6148660;28;19926;-68
2022/01/29 12:18:00;;;;;;;;;;;;;;;-8.81;51.36;96611.00;6144714;28;19927;-68
2022/01/29 12:21:05;;;;;;;;;;;;;;;-8.86;51.69;96610.09;6141874;28;19933;-67
2022/01/29 12:24:09;;;;;;;;;;;;;;;-8.98;51.89;96607.50;6140789;28;19926;-69
2022/01/29 12:27:10;;;;;;;;;;;;;;;-9.10;52.05;96596.34;6135204;28;19927;-69
2022/01/29 12:30:16;;;;;;;;;;;;;;;-9.27;52.27;96590.28;6146692;29;20389;-69
2022/01/29 12:33:21;;;;;;;;;;;;;;;-9.47;53.18;96599.47;6146096;28;19926;-70
2022/01/29 12:36:31;;;;;;;;;;;;;;;-9.62;53.03;96598.50;6136876;28;19935;-69
2022/01/29 12:39:32;;;;;;;;;;;;;;;-9.76;53.48;96594.97;6138421;28;20423;-65
2022/01/29 12:42:55;;;;;;;;;;;;;;;-9.86;54.02;96595.69;6142966;28;19927;-64
2022/01/29 12:46:25;;;;;;;;;;;;;;;-10.06;54.99;96596.34;6139601;28;19927;-65
2022/01/29 12:49:26;;;;;;;;;;;;;;;-10.26;55.52;96597.81;6139916;28;19933;-65
2022/01/29 12:52:30;;;;;;;;;;;;;;;-10.40;55.66;96598.53;6144157;28;19970;-66
2022/01/29 12:55:32;;;;;;;;;;;;;;;-10.30;56.84;96596.09;6138576;28;19934;-65
2022/01/29 12:58:37;;;;;;;;;;;;;;;-10.49;57.57;96606.03;6139213;28;19934;-65
2022/01/29 13:01:39;;;;;;;;;;;;;;;-10.73;57.48;96610.81;6135498;28;19927;-65
2022/01/29 13:04:46;;;;;;;;;;;;;;;-10.80;58.05;96620.03;6139143;28;19930;-67
2022/01/29 13:07:49;;;;;;;;;;;;;;;-10.92;58.05;96615.66;6134666;28;19938;-65
2022/01/29 13:10:50;;;;;;;;;;;;;;;-11.14;58.53;96611.06;6139650;28;20028;-65
2022/01/29 13:13:52;;;;;;;;;;;;;;;-11.18;58.85;96606.75;6141278;28;20396;-66
2022/01/29 13:16:54;;;;;;;;;;;;;;;-11.24;58.55;96611.75;6137140;28;20308;-66
2022/01/29 13:19:58;;;;;;;;;;;;;;;-11.31;58.79;96611.66;6145900;28;19927;-65
2022/01/29 13:23:00;;;;;;;;;;;;;;;-11.26;58.60;96618.47;6144304;28;19927;-69
2022/01/29 13:26:32;;;;;;;;;;;;;;;-11.27;58.65;96616.78;6144572;28;19926;-66
2022/01/29 13:29:34;;;;;;;;;;;;;;;-11.31;58.95;96611.66;6128294;28;19926;-71
2022/01/29 13:32:38;;;;;;;;;;;;;;;-11.28;58.53;96604.94;6140887;28;20005;-65
2022/01/29 13:35:48;;;;;;;;;;;;;;;-11.37;58.65;96605.63;6143443;28;19933;-64
2022/01/29 13:39:02;;;;;;;;;;;;;;;-11.41;58.58;96614.88;6140609;28;19926;-66
2022/01/29 13:42:10;;;;;;;;;;;;;;;-11.45;58.92;96614.81;6142089;28;19927;-65
2022/01/29 13:45:15;;;;;;;;;;;;;;;-11.47;58.87;96603.78;6135415;28;19926;-65
2022/01/29 13:48:18;;;;;;;;;;;;;;;-11.45;58.96;96602.13;6129528;28;19926;-65
2022/01/29 13:51:29;;;;;;;;;;;;;;;-11.47;58.82;96602.09;6139229;28;20405;-65
2022/01/29 13:54:33;;;;;;;;;;;;;;;-11.47;58.99;96607.16;6143597;28;19926;-65
2022/01/29 13:57:34;;;;;;;;;;;;;;;-11.53;59.30;96609.59;6134711;28;20367;-65
2022/01/29 14:00:55;;;;;;;;;;;;;;;-11.56;59.35;96605.31;6141596;28;19926;-65
2022/01/29 14:03:59;;;;;;;;;;;;;;;-11.55;59.28;96606.19;6145566;28;20380;-66
2022/01/29 14:07:04;;;;;;;;;;;;;;;-11.60;59.09;96602.72;6143731;29;19927;-65
2022/01/29 14:10:12;;;;;;;;;;;;;;;-11.64;58.87;96611.94;6141605;28;19926;-66
2022/01/29 14:13:13;;;;;;;;;;;;;;;-11.73;59.41;96610.94;6139953;28;20455;-66
2022/01/29 14:16:14;;;;;;;;;;;;;;;-11.78;59.60;96614.25;6136832;28;19927;-65
2022/01/29 14:19:19;;;;;;;;;;;;;;;-11.78;59.28;96611.72;6143891;28;19926;-66
2022/01/29 14:22:21;;;;;;;;;;;;;;;-11.80;59.06;96610.00;6142153;28;19933;-65
2022/01/29 14:25:22;;;;;;;;;;;;;;;-11.84;59.10;96613.28;6139216;28;19926;-65
2022/01/29 14:28:23;;;;;;;;;;;;;;;-11.88;59.35;96617.50;6146628;28;19933;-66
2022/01/29 14:31:27;;;;;;;;;;;;;;;-11.93;59.32;96608.94;6142931;28;19922;-66
2022/01/29 14:34:30;;;;;;;;;;;;;;;-12.00;59.50;96615.59;6146107;28;19926;-64
2022/01/29 14:37:31;;;;;;;;;;;;;;;-12.09;59.80;96617.09;6147804;28;19934;-64
2022/01/29 14:40:32;;;;;;;;;;;;;;;-12.15;60.19;96617.84;6145590;28;20439;-64
2022/01/29 14:43:34;;;;;;;;;;;;;;;-12.16;60.75;96617.81;6146018;28;19927;-65
2022/01/29 14:46:39;;;;;;;;;;;;;;;-12.16;61.22;96612.75;6144942;28;19926;-65
2022/01/29 14:49:47;;;;;;;;;;;;;;;-12.17;61.81;96623.69;6144919;28;19926;-64
2022/01/29 14:52:48;;;;;;;;;;;;;;;-12.17;61.22;96618.63;6143800;28;19930;-66
2022/01/29 14:55:50;;;;;;;;;;;;;;;-12.22;61.58;96621.09;6144632;28;20399;-64
2022/01/29 14:58:53;;;;;;;;;;;;;;;-12.25;61.95;96624.41;6141055;28;19927;-65
2022/01/29 15:01:57;;;;;;;;;;;;;;;-12.27;61.57;96626.06;6142308;28;19926;-64
2022/01/29 15:05:00;;;;;;;;;;;;;;;-12.28;60.82;96626.91;6145088;28;20372;-68
2022/01/29 15:08:01;;;;;;;;;;;;;;;-12.31;60.29;96625.97;6145438;28;19936;-64
2022/01/29 15:11:03;;;;;;;;;;;;;;;-12.31;60.19;96616.69;6142198;28;20428;-63
2022/01/29 15:14:04;;;;;;;;;;;;;;;-12.32;59.93;96620.03;6148010;28;19930;-61
2022/01/29 15:17:05;;;;;;;;;;;;;;;-12.41;59.88;96613.94;6138034;28;19930;-65
2022/01/29 15:20:07;;;;;;;;;;;;;;;-12.50;59.92;96610.41;6146611;28;19973;-62
2022/01/29 15:23:08;;;;;;;;;;;;;;;-12.55;59.64;96606.06;6138869;28;20012;-61
2022/01/29 15:26:10;;;;;;;;;;;;;;;-12.56;60.00;96602.69;6141744;28;19982;-67
2022/01/29 15:29:13;;;;;;;;;;;;;;;-12.54;60.06;96598.50;6140266;28;20384;-64
2022/01/29 15:32:14;;;;;;;;;;;;;;;-12.52;60.29;96598.50;6137611;28;19926;-62
2022/01/29 15:35:15;;;;;;;;;;;;;;;-12.49;60.46;96598.56;6139944;28;19970;-62
2022/01/29 15:38:17;;;;;;;;;;;;;;;-12.45;60.14;96597.84;6144813;28;19941;-62
2022/01/29 15:41:20;;;;;;;;;;;;;;;-12.44;60.62;96597.00;6136368;28;20154;-63
2022/01/29 15:44:21;;;;;;;;;;;;;;;-12.45;60.54;96603.75;6144473;28;19930;-62
2022/01/29 15:47:22;;;;;;;;;;;;;;;-12.45;60.88;96592.75;6139327;28;20392;-62
2022/01/29 15:50:25;;;;;;;;;;;;;;;-12.47;60.94;96592.72;6161109;28;19960;-62
2022/01/29 15:53:26;;;;;;;;;;;;;;;-12.50;61.11;96594.34;6142832;28;19923;-63
2022/01/29 15:56:31;;;;;;;;;;;;;;;-12.51;60.34;96593.50;6138428;28;19927;-63
2022/01/29 15:59:32;;;;;;;;;;;;;;;-12.54;60.27;96597.63;6158797;28;19942;-63